createdAt,value
2017-10-19T00:00:09.390Z,16.97
2017-10-19T00:02:41.712Z,18.33
2017-10-19T00:05:38.406Z,15.90
2017-10-19T00:08:15.891Z,18.87
2017-10-19T00:10:45.905Z,15.03
2017-10-19T00:13:15.881Z,16.73
2017-10-19T00:15:44.978Z,19.97
2017-10-19T00:18:15.977Z,17.67
2017-10-19T00:20:45.043Z,14.77
2017-10-19T00:23:18.817Z,21.93
2017-10-19T00:25:47.856Z,17.80
2017-10-19T00:28:18.847Z,12.33
2017-10-19T00:30:48.926Z,16.87
2017-10-19T00:33:18.943Z,17.57
2017-10-19T00:35:47.991Z,15.90
2017-10-19T00:38:17.115Z,18.70
2017-10-19T00:40:47.056Z,16.70
2017-10-19T00:43:32.807Z,13.70
2017-10-19T00:46:03.777Z,14.17
2017-10-19T00:48:32.910Z,13.37
2017-10-19T00:51:30.112Z,15.33
2017-10-19T00:53:59.163Z,15.07
2017-10-19T00:56:40.759Z,14.63
2017-10-19T00:59:11.749Z,14.53
2017-10-19T01:01:44.101Z,16.63
2017-10-19T01:04:25.926Z,19.60
2017-10-19T01:06:54.967Z,15.57
2017-10-19T01:09:38.881Z,17.50
2017-10-19T01:12:12.170Z,17.83
2017-10-19T01:14:42.197Z,18.40
2017-10-19T01:17:28.935Z,19.50
2017-10-19T01:19:57.976Z,19.47
2017-10-19T01:22:40.208Z,21.00
2017-10-19T01:25:24.295Z,20.80
2017-10-19T01:27:53.353Z,22.03
2017-10-19T01:30:23.287Z,23.90
2017-10-19T01:32:53.255Z,20.17
2017-10-19T01:35:30.418Z,20.00
2017-10-19T01:37:59.471Z,18.60
2017-10-19T01:40:41.468Z,16.93
2017-10-19T01:43:23.399Z,17.10
2017-10-19T01:45:52.483Z,15.00
2017-10-19T01:48:40.305Z,15.27
2017-10-19T01:51:13.732Z,17.87
2017-10-19T01:53:43.835Z,18.47
2017-10-19T01:56:16.036Z,22.07
2017-10-19T01:58:45.083Z,25.80
2017-10-19T02:01:21.451Z,24.97
2017-10-19T02:03:51.493Z,26.50
2017-10-19T02:06:20.548Z,24.80
2017-10-19T02:08:50.369Z,18.73
2017-10-19T02:11:19.416Z,19.07
2017-10-19T02:13:48.558Z,19.97
2017-10-19T02:16:20.653Z,24.67
2017-10-19T02:18:49.703Z,20.30
2017-10-19T02:21:19.693Z,18.20
2017-10-19T02:23:48.738Z,15.47
2017-10-19T02:26:17.834Z,15.80
2017-10-19T02:28:46.910Z,14.93
2017-10-19T02:31:23.776Z,14.77
2017-10-19T02:33:52.819Z,14.13
2017-10-19T02:36:39.499Z,15.50
2017-10-19T02:39:08.540Z,14.43
2017-10-19T02:41:40.790Z,17.53
2017-10-19T02:44:09.840Z,18.73
2017-10-19T02:46:39.802Z,15.67
2017-10-19T02:49:12.086Z,17.87
2017-10-19T02:51:41.172Z,15.30
2017-10-19T02:54:10.247Z,13.60
2017-10-19T02:56:40.201Z,13.90
2017-10-19T02:59:24.673Z,13.60
2017-10-19T03:01:53.739Z,10.53
2017-10-19T03:04:35.971Z,11.10
2017-10-19T03:07:14.380Z,11.63
2017-10-19T03:09:43.455Z,10.23
2017-10-19T03:12:20.622Z,12.80
2017-10-19T03:14:51.291Z,13.70
2017-10-19T03:17:39.642Z,15.37
2017-10-19T03:20:10.556Z,15.00
2017-10-19T03:22:40.569Z,18.33
2017-10-19T03:25:23.956Z,15.83
2017-10-19T03:27:53.119Z,23.17
2017-10-19T03:30:26.492Z,15.60
2017-10-19T03:32:55.543Z,15.37
2017-10-19T03:35:24.600Z,13.70
2017-10-19T03:37:53.653Z,12.67
2017-10-19T03:40:27.299Z,15.80
2017-10-19T03:42:56.326Z,17.70
2017-10-19T03:45:40.166Z,18.93
2017-10-19T03:48:11.155Z,20.40
2017-10-19T03:50:40.214Z,19.23
2017-10-19T03:53:40.055Z,18.30
2017-10-19T03:56:09.120Z,20.83
2017-10-19T03:58:41.751Z,21.37
2017-10-19T04:01:11.041Z,21.47
2017-10-19T04:03:41.132Z,20.83
2017-10-19T04:06:14.014Z,16.50
2017-10-19T04:08:43.108Z,15.13
2017-10-19T04:11:15.851Z,19.13
2017-10-19T04:13:57.626Z,21.50
2017-10-19T04:16:40.457Z,15.00
2017-10-19T04:19:17.731Z,20.67
2017-10-19T04:21:46.780Z,17.97
2017-10-19T04:24:26.628Z,13.37
2017-10-19T04:26:55.668Z,13.30
2017-10-19T04:29:41.654Z,14.87
2017-10-19T04:32:36.897Z,17.20
2017-10-19T04:35:16.400Z,13.70
2017-10-19T04:37:45.444Z,19.93
2017-10-19T04:40:15.529Z,15.37
2017-10-19T04:42:44.611Z,11.93
2017-10-19T04:45:13.661Z,10.60
2017-10-19T04:47:42.704Z,9.60
2017-10-19T04:50:11.766Z,8.53
2017-10-19T04:52:40.826Z,10.93
2017-10-19T04:55:26.791Z,9.80
2017-10-19T04:57:55.852Z,8.87
2017-10-19T05:00:24.917Z,11.27
2017-10-19T05:02:53.963Z,9.63
2017-10-19T05:05:27.172Z,9.70
2017-10-19T05:07:56.208Z,11.87
2017-10-19T05:10:26.184Z,10.43
2017-10-19T05:12:56.152Z,11.03
2017-10-19T05:15:26.234Z,11.40
2017-10-19T05:17:55.293Z,11.93
2017-10-19T05:20:36.524Z,12.90
2017-10-19T05:23:06.471Z,12.83
2017-10-19T05:25:39.776Z,14.60
2017-10-19T05:28:15.802Z,14.90
2017-10-19T05:30:44.874Z,14.93
2017-10-19T05:33:13.959Z,15.07
2017-10-19T05:35:43.941Z,23.80
2017-10-19T05:38:13.966Z,23.57
2017-10-19T05:40:43.050Z,19.70
2017-10-19T05:43:25.634Z,11.50
2017-10-19T05:45:55.637Z,9.60
2017-10-19T05:48:33.045Z,10.17
2017-10-19T05:51:15.795Z,10.50
2017-10-19T05:53:45.746Z,8.67
2017-10-19T05:56:16.725Z,11.40
2017-10-19T05:58:45.799Z,9.83
2017-10-19T06:01:15.829Z,11.20
2017-10-19T06:03:44.932Z,11.60
2017-10-19T06:06:39.200Z,15.20
2017-10-19T06:09:17.082Z,11.00
2017-10-19T06:11:46.133Z,13.27
2017-10-19T06:14:19.775Z,12.83
2017-10-19T06:16:48.830Z,10.57
2017-10-19T06:19:21.775Z,10.50
2017-10-19T06:21:57.118Z,10.30
2017-10-19T06:24:26.206Z,10.60
2017-10-19T06:27:15.006Z,9.47
2017-10-19T06:30:05.093Z,10.83
2017-10-19T06:32:34.161Z,10.87
2017-10-19T06:35:14.860Z,12.67
2017-10-19T06:37:47.794Z,11.83
2017-10-19T06:40:16.884Z,15.43
2017-10-19T06:42:50.887Z,14.40
2017-10-19T06:45:20.902Z,12.00
2017-10-19T06:47:49.949Z,15.23
2017-10-19T06:50:19.007Z,13.73
2017-10-19T06:52:51.022Z,14.93
2017-10-19T06:55:20.068Z,10.63
2017-10-19T06:57:53.324Z,11.40
2017-10-19T07:00:26.404Z,11.70
2017-10-19T07:02:55.482Z,10.40
2017-10-19T07:05:24.562Z,10.73
2017-10-19T07:07:53.819Z,11.90
2017-10-19T07:10:26.685Z,10.17
2017-10-19T07:12:55.760Z,10.80
2017-10-19T07:15:33.640Z,10.80
2017-10-19T07:18:09.706Z,10.20
2017-10-19T07:20:38.763Z,8.63
2017-10-19T07:23:17.677Z,7.47
2017-10-19T07:25:57.085Z,9.03
2017-10-19T07:28:26.112Z,8.90
2017-10-19T07:31:11.819Z,8.30
2017-10-19T07:33:40.896Z,7.80
2017-10-19T07:36:23.732Z,7.10
2017-10-19T07:39:02.399Z,7.73
2017-10-19T07:41:31.570Z,6.40
2017-10-19T07:44:02.506Z,6.60
2017-10-19T07:46:31.797Z,6.17
2017-10-19T07:49:02.749Z,7.20
2017-10-19T07:51:31.815Z,6.17
2017-10-19T07:54:02.870Z,5.03
2017-10-19T07:56:35.579Z,5.20
2017-10-19T07:59:16.958Z,5.50
2017-10-19T08:01:58.825Z,4.57
2017-10-19T08:04:27.898Z,4.40
2017-10-19T08:06:57.012Z,5.23
2017-10-19T08:09:26.066Z,4.47
2017-10-19T08:11:57.035Z,4.03
2017-10-19T08:14:26.088Z,3.70
2017-10-19T08:17:03.665Z,4.17
2017-10-19T08:19:34.306Z,3.90
2017-10-19T08:22:22.327Z,3.80
2017-10-19T08:24:59.709Z,3.60
2017-10-19T08:27:29.727Z,3.50
2017-10-19T08:30:01.710Z,3.50
2017-10-19T08:32:30.766Z,3.70
2017-10-19T08:34:59.836Z,3.17
2017-10-19T08:37:28.882Z,3.27
2017-10-19T08:40:22.223Z,3.00
2017-10-19T08:42:55.486Z,3.17
2017-10-19T08:45:24.524Z,3.13
2017-10-19T08:47:57.222Z,2.97
2017-10-19T08:50:26.284Z,2.80
2017-10-19T08:52:59.798Z,2.90
2017-10-19T08:55:28.851Z,2.60
2017-10-19T08:58:01.621Z,2.53
2017-10-19T09:00:30.704Z,3.00
2017-10-19T09:03:04.203Z,3.03
2017-10-19T09:05:34.084Z,2.70
2017-10-19T09:08:06.791Z,2.97
2017-10-19T09:10:36.389Z,2.60
2017-10-19T09:13:05.464Z,2.20
2017-10-19T09:15:35.858Z,2.57
2017-10-19T09:18:13.120Z,2.03
2017-10-19T09:21:03.052Z,2.33
2017-10-19T09:23:32.104Z,3.13
2017-10-19T09:26:04.951Z,2.50
2017-10-19T09:28:34.029Z,2.37
2017-10-19T09:31:05.641Z,1.90
2017-10-19T09:33:35.694Z,2.57
2017-10-19T09:36:09.877Z,2.83
2017-10-19T09:38:38.931Z,2.63
2017-10-19T09:41:22.444Z,2.60
2017-10-19T09:43:59.705Z,2.60
2017-10-19T09:46:28.747Z,2.40
2017-10-19T09:48:59.760Z,2.17
2017-10-19T09:51:28.845Z,2.33
2017-10-19T09:54:11.188Z,2.57
2017-10-19T09:56:40.263Z,2.67
2017-10-19T09:59:21.428Z,2.67
2017-10-19T10:02:21.124Z,2.57
2017-10-19T10:05:06.706Z,2.60
2017-10-19T10:07:35.750Z,3.27
2017-10-19T10:10:21.835Z,2.70
2017-10-19T10:13:00.376Z,2.63
2017-10-19T10:15:29.825Z,2.50
2017-10-19T10:17:59.771Z,2.80
2017-10-19T10:27:09.000Z,3.20
2017-10-19T10:29:38.051Z,3.20
2017-10-19T10:32:19.818Z,3.30
2017-10-19T10:34:48.926Z,2.97
2017-10-19T10:37:17.967Z,2.90
2017-10-19T10:39:47.038Z,3.10
2017-10-19T10:42:16.205Z,3.20
2017-10-19T10:44:46.232Z,2.50
2017-10-19T10:47:15.281Z,3.40
2017-10-19T10:49:44.326Z,3.30
2017-10-19T10:52:13.371Z,3.30
2017-10-19T10:54:42.436Z,3.27
2017-10-19T10:57:11.499Z,3.30
2017-10-19T10:59:40.540Z,3.03
2017-10-19T11:02:10.543Z,3.17
2017-10-19T11:04:40.051Z,3.80
2017-10-19T11:07:09.591Z,3.30
2017-10-19T11:09:38.647Z,3.70
2017-10-19T11:12:07.694Z,3.27
2017-10-19T11:14:36.802Z,3.17
2017-10-19T11:17:05.860Z,2.90
2017-10-19T11:19:34.911Z,2.90
2017-10-19T11:22:03.956Z,3.77
2017-10-19T11:24:33.039Z,3.40
2017-10-19T11:27:02.071Z,3.30
2017-10-19T11:29:31.115Z,3.50
2017-10-19T11:32:00.180Z,4.90
2017-10-19T11:34:29.234Z,4.10
2017-10-19T11:36:58.283Z,5.80
2017-10-19T11:39:27.331Z,5.47
2017-10-19T11:41:56.440Z,5.50
2017-10-19T11:44:25.495Z,5.43
2017-10-19T11:46:54.545Z,4.47
2017-10-19T11:49:23.601Z,4.97
2017-10-19T11:51:52.656Z,4.97
2017-10-19T11:54:21.707Z,5.87
2017-10-19T11:56:50.791Z,6.10
2017-10-19T11:59:19.821Z,6.00
2017-10-19T12:01:48.875Z,6.10
2017-10-19T12:04:17.945Z,6.70
2017-10-19T12:06:46.991Z,6.20
2017-10-19T12:09:16.038Z,6.03
2017-10-19T12:11:46.049Z,5.93
2017-10-19T12:14:15.122Z,6.83
2017-10-19T12:16:44.166Z,6.50
2017-10-19T12:19:13.211Z,6.20
2017-10-19T12:21:42.259Z,5.97
2017-10-19T12:24:11.449Z,5.63
2017-10-19T12:26:40.493Z,6.50
2017-10-19T12:29:10.055Z,5.40
2017-10-19T12:31:39.114Z,5.47
2017-10-19T12:34:08.987Z,4.80
2017-10-19T12:36:39.053Z,4.53
2017-10-19T12:39:08.112Z,5.03
2017-10-19T12:41:37.156Z,5.10
2017-10-19T12:44:06.507Z,4.90
2017-10-19T12:46:35.644Z,5.03
2017-10-19T12:49:06.348Z,4.30
2017-10-19T12:51:35.680Z,3.87
2017-10-19T12:54:04.752Z,4.40
2017-10-19T12:56:33.788Z,4.40
2017-10-19T12:59:03.797Z,4.17
2017-10-19T13:01:32.834Z,4.13
2017-10-19T13:04:01.879Z,4.70
2017-10-19T13:06:30.930Z,3.93
2017-10-19T13:08:59.977Z,3.70
2017-10-19T13:11:29.151Z,3.97
2017-10-19T13:13:58.179Z,3.80
2017-10-19T13:16:26.544Z,3.90
2017-10-19T13:18:54.898Z,4.13
2017-10-19T13:21:23.259Z,3.70
2017-10-19T13:23:52.307Z,3.47
2017-10-19T13:26:21.371Z,4.10
2017-10-19T13:28:51.423Z,4.00
2017-10-19T13:31:27.075Z,4.37
2017-10-19T13:33:56.146Z,4.60
2017-10-19T13:36:25.187Z,3.00
2017-10-19T13:38:54.287Z,4.03
2017-10-19T13:41:23.329Z,3.70
2017-10-19T13:43:52.384Z,3.57
2017-10-19T13:46:25.573Z,4.27
2017-10-19T13:48:54.967Z,3.70
2017-10-19T13:51:24.435Z,3.27
2017-10-19T13:53:53.483Z,3.60
2017-10-19T13:56:22.522Z,3.90
2017-10-19T13:58:51.571Z,4.17
2017-10-19T14:01:20.622Z,3.70
2017-10-19T14:03:51.616Z,3.40
2017-10-19T14:06:20.660Z,3.40
2017-10-19T14:08:49.715Z,4.03
2017-10-19T14:11:18.762Z,3.80
2017-10-19T14:13:50.083Z,3.80
2017-10-19T14:16:19.157Z,4.60
2017-10-19T14:18:48.206Z,3.70
2017-10-19T14:21:17.275Z,3.70
2017-10-19T14:23:46.824Z,4.00
2017-10-19T14:26:16.017Z,3.57
2017-10-19T14:28:45.187Z,3.70
2017-10-19T14:31:14.314Z,3.47
2017-10-19T14:33:43.412Z,3.90
2017-10-19T14:36:12.467Z,3.70
2017-10-19T14:38:42.514Z,3.53
2017-10-19T14:41:11.786Z,4.30
2017-10-19T14:43:40.814Z,4.30
2017-10-19T14:46:10.704Z,4.27
2017-10-19T14:48:40.728Z,3.80
2017-10-19T14:51:10.338Z,4.40
2017-10-19T14:53:39.541Z,4.30
2017-10-19T14:56:15.215Z,3.83
2017-10-19T14:58:44.734Z,4.30
2017-10-19T15:01:13.800Z,4.03
2017-10-19T15:03:42.860Z,4.17
2017-10-19T15:06:11.911Z,3.67
2017-10-19T15:08:40.942Z,4.00
2017-10-19T15:11:11.070Z,4.00
2017-10-19T15:13:40.135Z,3.90
2017-10-19T15:16:09.995Z,4.33
2017-10-19T15:18:39.229Z,4.73
2017-10-19T15:21:08.973Z,4.90
2017-10-19T15:23:38.013Z,4.87
2017-10-19T15:26:07.278Z,4.73
2017-10-19T15:28:36.343Z,5.40
2017-10-19T15:31:05.412Z,4.47
2017-10-19T15:33:34.439Z,4.63
2017-10-19T15:36:03.496Z,5.57
2017-10-19T15:38:32.548Z,5.00
2017-10-19T15:41:01.603Z,5.87
2017-10-19T15:43:30.665Z,4.70
2017-10-19T15:45:59.711Z,5.00
2017-10-19T15:48:28.768Z,5.00
2017-10-19T15:51:14.737Z,4.70
2017-10-19T15:53:43.791Z,5.60
2017-10-19T15:56:12.926Z,5.47
2017-10-19T15:58:41.967Z,6.40
2017-10-19T16:01:11.033Z,5.10
2017-10-19T16:03:40.079Z,5.53
2017-10-19T16:06:09.123Z,4.83
2017-10-19T16:08:38.180Z,5.37
2017-10-19T16:11:07.258Z,6.13
2017-10-19T16:13:36.294Z,5.40
2017-10-19T16:16:05.355Z,5.47
2017-10-19T16:18:34.384Z,5.40
2017-10-19T16:21:03.451Z,6.80
2017-10-19T16:23:32.512Z,5.60
2017-10-19T16:26:01.599Z,6.40
2017-10-19T16:28:30.646Z,6.70
2017-10-19T16:30:59.698Z,5.80
2017-10-19T16:33:28.738Z,7.57
2017-10-19T16:35:57.784Z,6.80
2017-10-19T16:38:26.899Z,7.17
2017-10-19T16:40:56.051Z,7.83
2017-10-19T16:43:25.092Z,7.13
2017-10-19T16:45:54.207Z,6.87
2017-10-19T16:48:24.253Z,7.80
2017-10-19T16:50:53.298Z,8.40
2017-10-19T16:53:22.362Z,7.57
2017-10-19T16:55:51.415Z,6.80
2017-10-19T16:58:20.464Z,6.10
2017-10-19T17:00:53.970Z,7.50
2017-10-19T17:03:23.012Z,6.47
2017-10-19T17:05:52.111Z,6.60
2017-10-19T17:08:21.168Z,6.13
2017-10-19T17:10:50.210Z,7.10
2017-10-19T17:13:19.307Z,6.40
2017-10-19T17:15:48.371Z,6.90
2017-10-19T17:18:17.440Z,6.50
2017-10-19T17:20:46.484Z,7.10
2017-10-19T17:23:15.545Z,7.20
2017-10-19T17:25:44.618Z,7.03
2017-10-19T17:28:13.668Z,6.93
2017-10-19T17:30:42.712Z,7.07
2017-10-19T17:33:11.787Z,7.07
2017-10-19T17:35:43.590Z,6.60
2017-10-19T17:38:12.663Z,7.33
2017-10-19T17:40:41.719Z,6.27
2017-10-19T17:43:10.763Z,6.77
2017-10-19T17:45:39.820Z,5.90
2017-10-19T17:48:08.898Z,6.60
2017-10-19T17:50:37.935Z,6.50
2017-10-19T17:53:06.989Z,6.43
2017-10-19T17:55:36.133Z,7.50
2017-10-19T17:58:05.196Z,7.10
2017-10-19T18:00:34.294Z,7.17
2017-10-19T18:03:03.327Z,6.20
2017-10-19T18:05:32.575Z,7.37
2017-10-19T18:08:01.631Z,5.87
2017-10-19T18:10:30.679Z,6.13
2017-10-19T18:12:59.827Z,6.13
2017-10-19T18:15:28.924Z,6.27
2017-10-19T18:17:57.985Z,6.10
2017-10-19T18:20:27.961Z,6.73
2017-10-19T18:22:57.051Z,6.97
2017-10-19T18:25:26.124Z,6.80
2017-10-19T18:27:55.166Z,8.67
2017-10-19T18:30:24.241Z,6.80
2017-10-19T18:32:53.267Z,6.50
2017-10-19T18:35:23.183Z,5.00
2017-10-19T18:37:57.350Z,6.00
2017-10-19T18:40:26.747Z,5.80
2017-10-19T18:42:55.789Z,5.30
2017-10-19T18:45:24.870Z,5.20
2017-10-19T18:47:53.930Z,5.37
2017-10-19T18:50:23.023Z,5.80
2017-10-19T18:52:52.054Z,5.80
2017-10-19T18:55:22.936Z,5.60
2017-10-19T18:57:51.999Z,5.50
2017-10-19T19:00:21.233Z,5.20
2017-10-19T19:02:50.465Z,5.13
2017-10-19T19:05:19.484Z,5.13
2017-10-19T19:07:48.538Z,5.17
2017-10-19T19:10:17.588Z,5.80
2017-10-19T19:12:47.662Z,4.77
2017-10-19T19:15:16.865Z,5.40
2017-10-19T19:17:45.923Z,6.00
2017-10-19T19:20:15.123Z,5.37
2017-10-19T19:22:44.167Z,5.53
2017-10-19T19:25:13.316Z,5.60
2017-10-19T19:30:23.544Z,6.47
2017-10-19T19:32:52.651Z,5.87
2017-10-19T19:35:22.238Z,6.20
2017-10-19T19:37:51.322Z,5.93
2017-10-19T19:40:20.439Z,6.23
2017-10-19T19:42:49.495Z,5.97
2017-10-19T19:45:18.534Z,5.90
2017-10-19T19:47:47.586Z,6.83
2017-10-19T19:50:16.665Z,6.50
2017-10-19T19:52:46.651Z,7.13
2017-10-19T19:55:15.692Z,6.93
2017-10-19T19:57:44.794Z,7.03
2017-10-19T20:00:13.888Z,6.20
2017-10-19T20:02:42.959Z,6.47
2017-10-19T20:05:12.036Z,6.90
2017-10-19T20:07:41.101Z,7.20
2017-10-19T20:10:10.126Z,6.33
2017-10-19T20:12:41.207Z,5.70
2017-10-19T20:15:11.204Z,7.07
2017-10-19T20:17:40.297Z,7.13
2017-10-19T20:20:09.327Z,6.97
2017-10-19T20:22:38.366Z,7.30
2017-10-19T20:25:07.433Z,7.80
2017-10-19T20:27:37.797Z,7.00
2017-10-19T20:30:16.066Z,7.07
2017-10-19T20:32:45.120Z,6.50
2017-10-19T20:35:14.127Z,7.07
2017-10-19T20:37:43.170Z,7.10
2017-10-19T20:40:12.214Z,6.50
2017-10-19T20:42:41.244Z,7.30
2017-10-19T20:45:10.298Z,6.47
2017-10-19T20:47:39.347Z,7.50
2017-10-19T20:50:08.390Z,7.23
2017-10-19T20:52:37.434Z,8.70
2017-10-19T20:55:06.527Z,8.20
2017-10-19T20:57:35.635Z,6.97
2017-10-19T21:00:04.655Z,6.87
2017-10-19T21:02:33.689Z,7.33
2017-10-19T21:05:02.783Z,7.53
2017-10-19T21:07:31.826Z,7.03
2017-10-19T21:10:00.855Z,7.13
2017-10-19T21:12:29.890Z,7.67
2017-10-19T21:15:00.844Z,7.47
2017-10-19T21:17:29.874Z,7.10
2017-10-19T21:19:58.929Z,7.30
2017-10-19T21:22:34.129Z,7.10
2017-10-19T21:25:03.437Z,7.43
2017-10-19T21:27:32.704Z,8.30
2017-10-19T21:30:01.745Z,6.93
2017-10-19T21:32:30.779Z,9.20
2017-10-19T21:34:59.831Z,7.40
2017-10-19T21:37:28.867Z,6.30
2017-10-19T21:39:57.912Z,6.40
2017-10-19T21:42:26.942Z,6.33
2017-10-19T21:44:55.995Z,6.93
2017-10-19T21:47:25.048Z,7.80
2017-10-19T21:49:54.068Z,6.70
2017-10-19T21:52:23.096Z,7.57
2017-10-19T21:54:52.115Z,8.20
2017-10-19T21:57:21.155Z,7.63
2017-10-19T21:59:50.188Z,7.43
2017-10-19T22:02:19.218Z,8.97
2017-10-19T22:04:48.283Z,9.50
2017-10-19T22:07:18.305Z,8.33
2017-10-19T22:09:47.338Z,8.23
2017-10-19T22:12:16.397Z,8.47
2017-10-19T22:14:45.444Z,9.27
2017-10-19T22:17:14.477Z,8.50
2017-10-19T22:19:43.509Z,8.27
2017-10-19T22:22:12.542Z,8.77
2017-10-19T22:24:41.626Z,8.10
2017-10-19T22:27:10.664Z,8.83
2017-10-19T22:29:39.711Z,10.03
2017-10-19T22:32:09.651Z,9.60
2017-10-19T22:34:52.066Z,9.40
2017-10-19T22:37:21.327Z,9.40
2017-10-19T22:39:50.365Z,9.37
2017-10-19T22:42:19.405Z,10.17
2017-10-19T22:44:48.455Z,10.57
2017-10-19T22:47:17.515Z,9.53
2017-10-19T22:49:46.568Z,8.83
2017-10-19T22:52:15.614Z,9.67
2017-10-19T22:54:44.686Z,9.17
2017-10-19T22:57:14.728Z,10.00
2017-10-19T22:59:43.774Z,9.00
2017-10-19T23:02:12.816Z,9.37
2017-10-19T23:04:41.857Z,9.40
2017-10-19T23:07:10.898Z,8.90
2017-10-19T23:09:39.970Z,11.10
2017-10-19T23:12:09.944Z,12.20
2017-10-19T23:14:38.978Z,12.00
2017-10-19T23:17:08.030Z,11.53
2017-10-19T23:19:37.080Z,12.43
2017-10-19T23:22:07.054Z,11.23
2017-10-19T23:24:36.086Z,10.60
2017-10-19T23:27:05.151Z,11.43
2017-10-19T23:29:34.203Z,10.93
2017-10-19T23:32:03.243Z,11.70
2017-10-19T23:34:32.290Z,10.37
2017-10-19T23:37:01.339Z,8.63
2017-10-19T23:39:30.366Z,7.30
2017-10-19T23:41:59.397Z,9.07
2017-10-19T23:44:28.440Z,7.60
2017-10-19T23:46:57.480Z,8.13
2017-10-19T23:49:26.528Z,8.40
2017-10-19T23:51:55.579Z,7.57
2017-10-19T23:54:24.627Z,9.03
2017-10-19T23:56:53.684Z,8.60
2017-10-19T23:59:22.728Z,8.47
